Time;durP1;ratioP1;P1;durP2;ratioP2;P2;SDS_P1;SDS_P2;PMS_P1;PMS_P2;Temp;Humidity;BMP_temperature;BMP_pressure;BME280_temperature;BME280_humidity;BME280_pressure;Samples;Min_cycle;Max_cycle;Signal;HPM_P1;HPM_P2
2022/05/12 00:00:30;;;;;;;4.25;1.80;;;;;;;14.96;77.72;101291.59;6429340;23;20444;-70
2022/05/12 00:03:03;;;;;;;6.22;1.27;;;;;;;14.95;77.69;101298.69;6428885;23;20004;-71
2022/05/12 00:05:35;;;;;;;4.47;1.63;;;;;;;14.88;78.03;101305.53;6428566;23;20084;-72
2022/05/12 00:08:07;;;;;;;8.13;1.77;;;;;;;14.79;78.50;101306.44;6428531;23;20005;-69
2022/05/12 00:10:40;;;;;;;4.72;1.40;;;;;;;14.75;78.68;101312.97;6428983;23;20161;-71
2022/05/12 00:13:11;;;;;;;5.93;1.88;;;;;;;14.76;78.03;101312.81;6429199;23;20015;-70
2022/05/12 00:15:43;;;;;;;3.28;1.60;;;;;;;14.69;78.50;101313.53;6429125;23;20076;-72
2022/05/12 00:18:14;;;;;;;6.50;1.90;;;;;;;14.75;77.98;101316.44;6428285;23;20009;-71
2022/05/12 00:20:45;;;;;;;5.95;1.58;;;;;;;14.70;78.48;101312.56;6428739;23;20062;-70
2022/05/12 00:23:29;;;;;;;4.85;1.40;;;;;;;14.68;78.64;101325.91;6427956;23;20012;-71
2022/05/12 00:26:00;;;;;;;3.53;1.25;;;;;;;14.54;79.13;101324.56;6427795;23;20004;-71
2022/05/12 00:28:32;;;;;;;5.28;1.35;;;;;;;14.56;78.91;101324.44;6428614;23;20378;-69
2022/05/12 00:31:03;;;;;;;4.70;1.63;;;;;;;14.46;79.23;101329.69;6427920;23;20520;-71
2022/05/12 00:33:34;;;;;;;4.82;1.48;;;;;;;14.46;79.79;101324.41;6427516;23;20016;-71
2022/05/12 00:36:06;;;;;;;5.07;1.80;;;;;;;14.35;79.91;101329.84;6428395;23;20013;-70
2022/05/12 00:38:37;;;;;;;5.28;1.65;;;;;;;14.36;80.58;101345.53;6428330;23;20107;-71
2022/05/12 00:41:09;;;;;;;4.53;1.45;;;;;;;14.31;80.72;101345.13;6428095;23;20028;-70
2022/05/12 00:44:02;;;;;;;5.18;1.80;;;;;;;14.39;81.14;101347.03;6428376;23;20005;-71
2022/05/12 00:46:38;;;;;;;4.38;1.60;;;;;;;14.29;80.84;101347.09;6428329;23;20384;-71
2022/05/12 00:49:14;;;;;;;3.20;1.30;;;;;;;14.14;81.35;101348.50;6428534;23;20826;-71
2022/05/12 00:52:09;;;;;;;3.65;1.40;;;;;;;14.43;79.90;101339.69;6427847;23;20017;-70
2022/05/12 00:54:46;;;;;;;4.32;1.67;;;;;;;14.04;81.14;101332.69;6427763;23;20543;-71
2022/05/12 00:57:40;;;;;;;5.15;1.40;;;;;;;14.28;80.35;101349.84;6427817;23;20009;-71
2022/05/12 01:00:13;;;;;;;5.93;1.50;;;;;;;14.10;80.46;101350.59;6401217;23;20005;-70
2022/05/12 01:02:48;;;;;;;4.82;1.73;;;;;;;13.97;82.68;101357.94;6427893;23;20058;-71
2022/05/12 01:05:21;;;;;;;5.45;1.30;;;;;;;13.97;81.34;101367.63;6427810;23;20032;-71
2022/05/12 01:07:55;;;;;;;2.85;1.30;;;;;;;14.00;81.01;101359.47;6427878;23;20080;-69
2022/05/12 01:10:28;;;;;;;5.13;1.48;;;;;;;13.90;83.29;101363.88;6428275;23;20740;-70
2022/05/12 01:13:00;;;;;;;6.78;1.77;;;;;;;13.83;84.54;101371.53;6427408;23;20005;-71
2022/05/12 01:15:32;;;;;;;6.05;1.98;;;;;;;13.85;83.74;101364.31;6401498;23;20482;-72
2022/05/12 01:18:11;;;;;;;6.25;1.85;;;;;;;13.92;85.07;101373.31;6427642;23;20005;-71
2022/05/12 01:20:42;;;;;;;5.35;1.67;;;;;;;13.76;86.05;101370.44;6428171;23;20009;-71
2022/05/12 01:23:19;;;;;;;3.88;1.60;;;;;;;13.77;86.34;101377.34;6428491;23;20072;-71
2022/05/12 01:25:59;;;;;;;7.20;2.10;;;;;;;13.77;86.72;101375.53;6427986;23;20480;-71
2022/05/12 01:28:31;;;;;;;6.20;2.30;;;;;;;13.65;87.95;101381.09;6427994;23;20009;-70
2022/05/12 01:31:04;;;;;;;9.82;2.85;;;;;;;13.59;88.78;101380.63;6428140;23;20013;-71
2022/05/12 01:33:35;;;;;;;8.05;2.17;;;;;;;13.54;89.89;101379.41;6427919;23;20012;-70
2022/05/12 01:36:06;;;;;;;6.70;1.92;;;;;;;13.57;88.94;101393.13;6427060;23;20009;-70
2022/05/12 01:38:38;;;;;;;7.78;2.00;;;;;;;13.58;88.06;101389.53;6428004;23;20009;-71
2022/05/12 01:41:09;;;;;;;7.72;2.50;;;;;;;13.44;90.28;101402.22;6427972;23;20013;-70
2022/05/12 01:43:41;;;;;;;7.45;2.00;;;;;;;13.50;89.82;101394.63;6401059;23;20032;-70
2022/05/12 01:46:13;;;;;;;7.57;2.00;;;;;;;13.43;89.23;101405.84;6427686;23;20008;-71
2022/05/12 01:48:44;;;;;;;7.75;2.22;;;;;;;13.46;88.31;101408.22;6427997;23;20009;-71
2022/05/12 01:51:16;;;;;;;6.05;1.88;;;;;;;13.42;88.78;101406.81;6427552;23;20009;-69
2022/05/12 01:53:47;;;;;;;7.75;2.28;;;;;;;13.46;87.81;101409.03;6427717;23;20432;-70
2022/05/12 01:56:18;;;;;;;6.63;2.15;;;;;;;13.36;90.51;101406.38;6428175;23;20453;-69
2022/05/12 01:58:49;;;;;;;10.75;2.40;;;;;;;13.39;88.38;101416.63;6428368;23;20009;-71
2022/05/12 02:01:21;;;;;;;8.48;2.80;;;;;;;13.34;89.19;101421.47;6425357;23;20404;-71
2022/05/12 02:03:52;;;;;;;8.05;2.25;;;;;;;13.24;89.19;101420.59;6427647;23;20011;-70
2022/05/12 02:06:23;;;;;;;6.47;2.20;;;;;;;13.22;89.01;101424.28;6425739;23;20060;-71
2022/05/12 02:08:54;;;;;;;6.60;2.45;;;;;;;13.18;89.89;101431.63;6427583;23;20926;-70
2022/05/12 02:11:26;;;;;;;7.28;2.25;;;;;;;13.18;89.66;101436.88;6426862;23;20013;-71
2022/05/12 02:13:57;;;;;;;8.02;2.50;;;;;;;13.23;88.99;101434.72;6427755;23;20625;-71
2022/05/12 02:16:30;;;;;;;6.65;2.72;;;;;;;13.15;89.91;101438.00;6428579;23;20412;-71
2022/05/12 02:19:05;;;;;;;6.10;2.05;;;;;;;13.10;91.04;101442.81;6399694;23;20292;-69
2022/05/12 02:21:37;;;;;;;5.78;2.13;;;;;;;13.06;90.75;101443.19;6427604;23;20012;-70
2022/05/12 02:24:08;;;;;;;9.15;2.60;;;;;;;13.00;90.95;101446.38;6401275;23;20001;-71
2022/05/12 02:26:39;;;;;;;9.27;2.38;;;;;;;12.98;91.35;101445.66;6427504;23;20059;-70
2022/05/12 02:29:10;;;;;;;9.30;2.40;;;;;;;13.04;90.37;101453.88;6427744;23;20000;-70
2022/05/12 02:31:42;;;;;;;7.15;2.30;;;;;;;13.00;90.03;101455.09;6401466;23;20360;-71
2022/05/12 02:34:14;;;;;;;6.07;1.80;;;;;;;12.87;91.80;101447.41;6426745;23;20071;-71
2022/05/12 02:36:59;;;;;;;9.48;2.13;;;;;;;12.85;92.13;101461.66;6427745;23;20500;-71
2022/05/12 02:39:35;;;;;;;6.45;2.50;;;;;;;12.84;91.77;101454.72;6428119;23;20005;-70
2022/05/12 02:42:09;;;;;;;6.25;2.35;;;;;;;12.77;93.26;101462.31;6427852;23;20009;-70
2022/05/12 02:44:40;;;;;;;8.50;2.30;;;;;;;12.66;94.37;101465.84;6427183;23;20001;-71
2022/05/12 02:47:12;;;;;;;9.10;2.42;;;;;;;12.69;93.14;101470.00;6429926;23;20031;-71
2022/05/12 02:49:43;;;;;;;6.97;2.25;;;;;;;12.63;93.57;101476.59;6429600;23;20076;-70
2022/05/12 02:52:14;;;;;;;6.53;2.45;;;;;;;12.62;93.25;101474.09;6428112;23;20048;-71
2022/05/12 02:54:46;;;;;;;6.85;2.35;;;;;;;12.58;93.73;101472.69;6403466;23;20519;-72
2022/05/12 02:57:17;;;;;;;9.43;2.72;;;;;;;12.51;93.98;101474.16;6429651;23;20063;-72
2022/05/12 02:59:48;;;;;;;8.52;2.67;;;;;;;12.47;95.85;101478.84;6429873;23;20024;-71
2022/05/12 03:02:19;;;;;;;9.68;2.40;;;;;;;12.52;94.44;101484.53;6428910;23;20032;-71
2022/05/12 03:04:51;;;;;;;9.93;3.67;;;;;;;12.44;93.74;101478.25;6429515;23;20016;-71
2022/05/12 03:07:22;;;;;;;6.72;2.85;;;;;;;12.32;97.37;101473.06;6402940;23;20005;-71
2022/05/12 03:09:53;;;;;;;7.55;3.25;;;;;;;12.40;95.02;101480.31;6428006;23;20079;-70
2022/05/12 03:12:25;;;;;;;13.38;3.55;;;;;;;12.29;98.29;101480.34;6429375;23;20012;-71
2022/05/12 03:14:56;;;;;;;9.02;2.88;;;;;;;12.29;96.52;101489.06;6429389;23;20017;-71
2022/05/12 03:17:28;;;;;;;8.10;3.40;;;;;;;12.27;98.50;101479.63;6429098;23;20209;-71
2022/05/12 03:19:59;;;;;;;12.00;3.88;;;;;;;12.24;99.30;101495.66;6428853;23;20016;-71
2022/05/12 03:22:30;;;;;;;12.65;4.30;;;;;;;12.21;100.00;101496.75;6429121;23;20417;-70
2022/05/12 03:25:03;;;;;;;12.10;4.18;;;;;;;12.18;100.00;101503.06;6428272;23;20352;-69
2022/05/12 03:27:35;;;;;;;9.95;3.65;;;;;;;12.17;100.00;101490.91;6428845;23;20005;-70
2022/05/12 03:30:10;;;;;;;12.38;4.75;;;;;;;12.18;100.00;101503.06;6428692;23;20015;-71
2022/05/12 03:32:42;;;;;;;11.10;4.78;;;;;;;12.13;100.00;101500.00;6429182;23;20005;-70
2022/05/12 03:35:14;;;;;;;12.23;4.88;;;;;;;12.05;100.00;101502.41;6428749;23;20028;-69
2022/05/12 03:37:46;;;;;;;14.20;5.00;;;;;;;11.97;100.00;101506.56;6428574;23;20036;-69
2022/05/12 03:40:17;;;;;;;10.13;4.32;;;;;;;12.01;100.00;101515.88;6429456;23;20017;-69
2022/05/12 03:42:50;;;;;;;12.10;5.00;;;;;;;11.98;100.00;101519.59;6402637;23;20352;-70
2022/05/12 03:45:22;;;;;;;13.85;5.80;;;;;;;11.90;100.00;101522.84;6429064;23;20431;-69
2022/05/12 03:47:55;;;;;;;11.55;4.55;;;;;;;11.87;100.00;101524.88;6428381;23;20009;-68
2022/05/12 03:50:27;;;;;;;11.35;5.15;;;;;;;11.92;100.00;101523.53;6402493;23;20511;-71
2022/05/12 03:52:59;;;;;;;12.97;5.90;;;;;;;11.91;100.00;101527.13;6429458;23;20001;-70
2022/05/12 03:55:30;;;;;;;12.05;5.53;;;;;;;11.97;100.00;101533.69;6428149;23;20313;-68
2022/05/12 03:58:01;;;;;;;17.52;5.53;;;;;;;11.87;100.00;101541.47;6426317;23;20364;-70
2022/05/12 04:00:34;;;;;;;18.08;6.05;;;;;;;11.87;100.00;101541.47;6428157;23;20004;-69
2022/05/12 04:03:05;;;;;;;16.80;6.60;;;;;;;11.88;100.00;101531.78;6427931;23;20005;-70
2022/05/12 04:05:37;;;;;;;14.48;7.78;;;;;;;11.87;100.00;101540.63;6427871;23;20340;-70
2022/05/12 04:08:08;;;;;;;14.85;7.22;;;;;;;11.84;100.00;101539.06;6423256;23;20009;-71
2022/05/12 04:10:40;;;;;;;17.58;7.72;;;;;;;11.81;100.00;101547.16;6427892;23;20008;-70
2022/05/12 04:13:11;;;;;;;14.63;6.82;;;;;;;11.87;100.00;101551.97;6428837;23;20344;-69
2022/05/12 04:15:44;;;;;;;16.25;8.02;;;;;;;11.87;100.00;101561.63;6427649;23;20005;-67
2022/05/12 04:18:15;;;;;;;19.80;8.68;;;;;;;11.91;100.00;101563.06;6429248;23;20016;-69
2022/05/12 04:20:46;;;;;;;16.20;7.57;;;;;;;11.91;100.00;101563.88;6428666;23;20009;-68
2022/05/12 04:23:18;;;;;;;17.85;8.50;;;;;;;11.91;100.00;101558.63;6428708;23;20047;-68
2022/05/12 04:25:49;;;;;;;21.27;8.82;;;;;;;11.91;100.00;101563.06;6428240;23;20012;-70
2022/05/12 04:28:21;;;;;;;16.85;8.70;;;;;;;11.92;100.00;101581.31;6428768;23;20005;-68
2022/05/12 04:30:52;;;;;;;20.48;9.32;;;;;;;11.95;100.00;101577.63;6428351;23;20009;-70
2022/05/12 04:36:14;;;;;;;19.98;9.73;;;;;;;11.99;100.00;101580.84;6428535;23;20226;-70
2022/05/12 04:38:45;;;;;;;19.20;9.27;;;;;;;12.06;100.00;101584.66;6427149;23;20425;-70
2022/05/12 04:41:16;;;;;;;20.13;9.75;;;;;;;12.05;100.00;101586.44;6428836;23;20418;-70
2022/05/12 04:43:47;;;;;;;18.42;9.85;;;;;;;12.07;100.00;101586.31;6428704;23;20108;-69
2022/05/12 04:46:19;;;;;;;24.52;10.20;;;;;;;12.10;100.00;101592.16;6428260;23;20019;-70
2022/05/12 04:48:51;;;;;;;16.58;9.88;;;;;;;12.13;100.00;101598.97;6428684;23;20070;-69
2022/05/12 04:51:22;;;;;;;16.63;10.50;;;;;;;12.16;100.00;101588.22;6427230;23;20017;-69
2022/05/12 04:53:54;;;;;;;19.95;10.60;;;;;;;12.18;100.00;101591.56;6401031;23;20248;-70
2022/05/12 04:56:25;;;;;;;23.35;11.38;;;;;;;12.26;100.00;101594.41;6428384;23;20437;-68
2022/05/12 04:58:57;;;;;;;24.52;12.63;;;;;;;12.28;100.00;101589.88;6427523;23;20405;-70
2022/05/12 05:01:28;;;;;;;21.77;11.30;;;;;;;12.37;100.00;101602.25;6402045;23;20005;-70
2022/05/12 05:04:00;;;;;;;19.50;11.23;;;;;;;12.45;100.00;101600.81;6399613;23;20084;-69
2022/05/12 05:06:32;;;;;;;22.88;11.93;;;;;;;12.45;100.00;101613.94;6426384;23;20009;-71
2022/05/12 05:09:05;;;;;;;22.35;12.52;;;;;;;12.49;100.00;101615.38;6399514;23;20034;-71
2022/05/12 05:11:38;;;;;;;24.63;12.10;;;;;;;12.57;100.00;101618.22;6427995;23;20087;-71
2022/05/12 05:14:09;;;;;;;25.52;12.80;;;;;;;12.61;100.00;101622.25;6424969;23;20523;-70
2022/05/12 05:16:40;;;;;;;28.40;13.60;;;;;;;12.64;100.00;101632.53;6426154;23;20412;-70
2022/05/12 05:19:11;;;;;;;22.45;12.75;;;;;;;12.71;100.00;101627.63;6426160;23;20008;-71
2022/05/12 05:21:43;;;;;;;21.20;12.25;;;;;;;12.76;100.00;101633.31;6426039;23;20084;-70
2022/05/12 05:24:14;;;;;;;25.45;13.82;;;;;;;12.80;100.00;101625.06;6423882;23;20016;-69
2022/05/12 05:26:45;;;;;;;20.88;12.73;;;;;;;12.85;100.00;101640.47;6425932;23;20463;-70
2022/05/12 05:29:16;;;;;;;24.48;14.55;;;;;;;12.91;100.00;101638.16;6425228;23;20009;-71
2022/05/12 05:31:49;;;;;;;21.27;14.50;;;;;;;12.95;100.00;101636.09;6425964;23;20055;-71
2022/05/12 05:34:20;;;;;;;23.52;14.75;;;;;;;13.02;100.00;101644.34;6427004;23;20433;-72
2022/05/12 05:36:51;;;;;;;20.65;14.27;;;;;;;13.06;100.00;101646.59;6428701;23;20093;-71
2022/05/12 05:39:26;;;;;;;23.58;14.52;;;;;;;13.16;100.00;101657.19;6428758;23;20005;-71
2022/05/12 05:42:11;;;;;;;21.27;14.50;;;;;;;13.32;100.00;101654.16;6427036;23;20474;-71
2022/05/12 05:44:43;;;;;;;22.30;14.90;;;;;;;13.25;100.00;101664.34;6427452;23;20005;-70
2022/05/12 05:47:14;;;;;;;24.10;15.00;;;;;;;13.29;100.00;101670.19;6428394;23;20056;-70
2022/05/12 05:49:46;;;;;;;23.75;15.85;;;;;;;13.31;100.00;101670.91;6428056;23;20087;-71
2022/05/12 05:55:07;;;;;;;25.88;16.35;;;;;;;13.49;100.00;101682.53;6427907;23;20017;-70
2022/05/12 05:57:39;;;;;;;27.52;18.00;;;;;;;13.56;100.00;101694.22;6428265;23;20009;-71
2022/05/12 06:00:12;;;;;;;29.30;16.70;;;;;;;13.63;100.00;101692.72;6427563;23;20008;-71
2022/05/12 06:02:43;;;;;;;27.92;17.70;;;;;;;13.76;100.00;101697.81;6426621;23;20012;-72
2022/05/12 06:05:17;;;;;;;24.95;17.48;;;;;;;13.81;100.00;101702.69;6401255;23;20009;-70
2022/05/12 06:07:48;;;;;;;26.27;18.17;;;;;;;13.88;100.00;101712.56;6428703;23;20015;-70
2022/05/12 06:10:20;;;;;;;28.80;16.60;;;;;;;13.98;100.00;101707.38;6425449;23;20009;-72
2022/05/12 06:12:53;;;;;;;25.08;17.77;;;;;;;14.11;100.00;101707.13;6425867;23;20543;-71
2022/05/12 06:15:25;;;;;;;27.50;17.83;;;;;;;14.17;100.00;101711.88;6401244;23;20009;-71
2022/05/12 06:17:56;;;;;;;24.77;17.27;;;;;;;14.26;100.00;101707.63;6423007;23;20039;-71
2022/05/12 06:20:28;;;;;;;20.35;16.15;;;;;;;14.38;100.00;101713.63;6427130;23;20040;-69
2022/05/12 06:22:59;;;;;;;27.33;18.00;;;;;;;14.42;100.00;101717.66;6402799;23;20436;-72
2022/05/12 06:25:30;;;;;;;25.13;17.77;;;;;;;14.57;100.00;101727.72;6428728;23;20436;-71
2022/05/12 06:28:02;;;;;;;24.83;17.85;;;;;;;14.68;100.00;101721.50;6428789;23;20001;-71
2022/05/12 06:30:35;;;;;;;23.83;16.90;;;;;;;14.74;100.00;101726.25;6428192;23;20009;-70
2022/05/12 06:33:07;;;;;;;22.67;17.33;;;;;;;14.90;100.00;101731.00;6426616;23;20089;-71
2022/05/12 06:35:38;;;;;;;29.10;17.83;;;;;;;14.83;100.00;101732.50;6428282;23;20243;-72
2022/05/12 06:38:11;;;;;;;23.05;16.38;;;;;;;14.81;100.00;101722.09;6426678;23;20012;-71
2022/05/12 06:40:42;;;;;;;26.10;17.40;;;;;;;14.89;100.00;101734.63;6428239;23;20015;-71
2022/05/12 06:43:14;;;;;;;22.95;17.40;;;;;;;14.82;100.00;101744.88;6427571;23;20421;-71
2022/05/12 06:45:45;;;;;;;20.75;17.20;;;;;;;14.81;100.00;101737.06;6428478;23;20009;-71
2022/05/12 06:48:17;;;;;;;22.80;16.30;;;;;;;14.90;100.00;101754.75;6428296;23;20005;-70
2022/05/12 06:50:49;;;;;;;29.23;16.48;;;;;;;14.86;100.00;101750.72;6425733;23;20081;-72
2022/05/12 06:53:20;;;;;;;22.10;16.75;;;;;;;14.88;100.00;101748.75;6426354;23;20009;-70
2022/05/12 06:55:51;;;;;;;20.83;16.40;;;;;;;14.89;100.00;101755.72;6427613;23;20008;-70
2022/05/12 06:58:23;;;;;;;23.80;15.50;;;;;;;14.95;100.00;101762.25;6426642;23;20054;-71
2022/05/12 07:00:54;;;;;;;20.48;16.20;;;;;;;15.01;100.00;101759.06;6427299;23;20020;-71
2022/05/12 07:03:29;;;;;;;19.70;15.95;;;;;;;15.26;100.00;101758.53;6401998;23;20012;-72
2022/05/12 07:06:02;;;;;;;19.02;14.98;;;;;;;15.53;100.00;101762.28;6420360;23;20009;-72
2022/05/12 07:08:37;;;;;;;;;;;;;;;16.02;100.00;101773.63;6426994;23;20005;-71
2022/05/12 07:11:10;;;;;;;21.77;15.15;;;;;;;15.70;100.00;101766.88;6426683;23;20343;-70
2022/05/12 07:13:41;;;;;;;18.67;14.43;;;;;;;16.02;100.00;101761.28;6426856;23;20084;-71
2022/05/12 07:16:13;;;;;;;17.17;13.40;;;;;;;16.26;100.00;101765.22;6427316;23;20084;-70
2022/05/12 07:18:44;;;;;;;18.27;14.10;;;;;;;16.35;100.00;101764.34;6400998;23;20678;-71
2022/05/12 07:26:56;;;;;;;21.02;12.82;;;;;;;16.17;95.91;101776.66;6428755;23;20427;-70
2022/05/12 07:29:28;;;;;;;19.67;12.07;;;;;;;16.10;96.12;101787.00;6427218;23;20013;-72
2022/05/12 07:32:00;;;;;;;17.30;13.10;;;;;;;16.27;97.95;101778.28;6427474;23;20063;-72
2022/05/12 07:34:32;;;;;;;19.83;12.68;;;;;;;16.49;95.72;101779.75;6427848;23;20015;-72
2022/05/12 07:37:03;;;;;;;13.23;11.82;;;;;;;16.56;94.54;101780.00;6425507;23;20096;-71
2022/05/12 07:39:36;;;;;;;14.05;11.32;;;;;;;16.71;91.01;101791.78;6428044;23;20005;-73
2022/05/12 07:42:07;;;;;;;13.32;9.25;;;;;;;16.88;85.00;101789.34;6427377;23;20437;-73
2022/05/12 07:44:40;;;;;;;15.48;8.57;;;;;;;16.93;82.76;101795.88;6427299;23;20009;-72
2022/05/12 07:47:13;;;;;;;12.87;9.67;;;;;;;17.25;84.39;101791.88;6427489;23;20012;-73
2022/05/12 07:49:44;;;;;;;13.30;9.93;;;;;;;17.50;83.48;101800.88;6426846;23;20103;-73
2022/05/12 07:52:16;;;;;;;15.05;10.80;;;;;;;17.67;80.12;101797.38;6423983;23;20104;-71
2022/05/12 07:54:47;;;;;;;20.45;10.05;;;;;;;17.76;76.79;101787.72;6424488;23;20009;-71
2022/05/12 07:57:21;;;;;;;15.57;9.13;;;;;;;17.97;75.22;101805.94;6427394;23;20067;-70
2022/05/12 07:59:52;;;;;;;12.70;8.88;;;;;;;18.16;73.87;101794.28;6427438;23;20079;-71
2022/05/12 08:02:24;;;;;;;12.60;9.10;;;;;;;18.36;74.11;101798.38;6426803;23;20394;-71
2022/05/12 08:04:56;;;;;;;14.52;8.65;;;;;;;18.45;70.28;101801.91;6426427;23;20460;-72
2022/05/12 08:07:29;;;;;;;14.43;8.63;;;;;;;18.39;69.59;101797.25;6425958;23;20009;-71
2022/05/12 08:10:01;;;;;;;16.95;8.68;;;;;;;18.56;68.27;101800.78;6427066;23;20245;-72
2022/05/12 08:12:32;;;;;;;12.07;7.63;;;;;;;18.58;67.44;101806.78;6427266;23;20091;-73
2022/05/12 08:15:05;;;;;;;13.40;8.07;;;;;;;18.76;67.66;101796.94;6427844;23;20445;-73
2022/05/12 08:17:37;;;;;;;;;;;;;;;19.45;64.88;101809.03;6428748;23;20005;-73
2022/05/12 08:20:11;;;;;;;11.48;8.18;;;;;;;18.91;64.44;101815.75;6425116;23;19912;-72
2022/05/12 08:22:42;;;;;;;12.95;9.13;;;;;;;19.02;65.27;101796.03;6425043;23;20135;-71
2022/05/12 08:25:14;;;;;;;13.38;9.32;;;;;;;19.23;62.60;101804.34;6425443;23;20084;-72
2022/05/12 08:27:45;;;;;;;10.23;6.43;;;;;;;19.24;61.77;101813.16;6428139;23;20349;-72
2022/05/12 08:30:17;;;;;;;7.18;5.18;;;;;;;18.96;60.16;101813.41;6427058;23;20012;-71
2022/05/12 08:32:48;;;;;;;10.18;5.40;;;;;;;19.01;61.29;101819.06;6426509;23;20012;-72
2022/05/12 08:35:20;;;;;;;10.40;5.45;;;;;;;19.26;61.25;101809.34;6427500;23;20009;-73
2022/05/12 08:37:51;;;;;;;8.90;5.10;;;;;;;19.49;57.37;101808.72;6425977;23;20067;-72
2022/05/12 08:40:32;;;;;;;11.13;5.43;;;;;;;19.77;60.89;101802.09;6427133;23;20084;-74
2022/05/12 08:43:21;;;;;;;7.40;5.10;;;;;;;19.65;60.96;101806.09;6427541;23;20008;-70
2022/05/12 08:46:01;;;;;;;8.38;4.00;;;;;;;19.20;57.66;101810.00;6427044;23;20001;-73
2022/05/12 08:48:34;;;;;;;9.00;3.90;;;;;;;18.92;58.75;101812.09;6427226;23;20111;-73
2022/05/12 08:51:06;;;;;;;7.13;3.58;;;;;;;19.32;59.42;101814.00;6425265;23;20501;-74
2022/05/12 08:53:53;;;;;;;7.63;3.17;;;;;;;19.55;56.19;101808.88;6427685;23;20009;-73
2022/05/12 08:56:25;;;;;;;6.25;4.43;;;;;;;19.29;56.60;101810.84;6426842;23;20336;-74
2022/05/12 08:58:57;;;;;;;10.30;4.47;;;;;;;19.09;56.80;101821.78;6427040;23;20009;-74
2022/05/12 09:01:38;;;;;;;9.90;4.70;;;;;;;18.99;56.84;101826.38;6426648;23;20411;-75
2022/05/12 09:04:33;;;;;;;8.27;4.85;;;;;;;18.87;57.47;101827.69;6424814;23;20437;-74
2022/05/12 09:07:28;;;;;;;9.05;5.07;;;;;;;18.51;58.22;101827.81;6423542;23;20016;-74
2022/05/12 09:10:10;;;;;;;11.10;5.28;;;;;;;18.89;60.01;101833.66;6427475;23;20013;-71
2022/05/12 09:12:52;;;;;;;10.27;5.18;;;;;;;19.46;58.40;101823.16;6400741;23;20008;-75
2022/05/12 09:15:31;;;;;;;8.70;5.20;;;;;;;19.70;53.87;101803.78;6427031;23;20008;-75
2022/05/12 09:18:15;;;;;;;12.40;5.32;;;;;;;20.03;52.74;101820.50;6428133;23;20445;-72
2022/05/12 09:20:46;;;;;;;10.18;5.63;;;;;;;20.26;51.01;101819.81;6426982;23;20016;-71
2022/05/12 09:23:17;;;;;;;9.57;4.87;;;;;;;20.05;52.03;101831.81;6424761;23;20005;-75
2022/05/12 09:25:52;;;;;;;11.80;5.50;;;;;;;19.82;53.30;101823.69;6426636;23;20040;-74
2022/05/12 09:28:29;;;;;;;8.65;5.07;;;;;;;19.50;52.85;101813.03;6426934;23;20001;-72
2022/05/12 09:31:12;;;;;;;8.05;4.68;;;;;;;19.49;53.79;101829.97;6426897;23;20009;-73
2022/05/12 09:33:44;;;;;;;;;;;;;;;19.82;52.67;101825.53;6426809;23;20009;-72
2022/05/12 09:36:25;;;;;;;7.17;4.20;;;;;;;19.52;55.07;101827.81;6426518;23;20149;-73
2022/05/12 09:38:57;;;;;;;7.60;3.95;;;;;;;19.54;52.29;101831.13;6427260;23;20087;-72
2022/05/12 09:41:44;;;;;;;6.50;4.47;;;;;;;19.80;50.03;101819.53;6427335;23;20005;-73
2022/05/12 09:44:23;;;;;;;8.52;4.78;;;;;;;20.06;51.07;101814.84;6424812;23;20079;-72
2022/05/12 09:47:02;;;;;;;9.40;5.78;;;;;;;20.11;50.80;101817.84;6399709;23;20184;-72
2022/05/12 09:49:38;;;;;;;8.30;4.93;;;;;;;20.34;50.05;101811.78;6426141;23;20013;-71
2022/05/12 09:52:27;;;;;;;6.35;3.80;;;;;;;20.74;47.77;101812.69;6425307;23;20094;-73
2022/05/12 09:55:19;;;;;;;6.50;3.10;;;;;;;20.67;43.63;101812.56;6425423;23;20144;-73
2022/05/12 09:57:58;;;;;;;7.93;3.08;;;;;;;20.65;45.08;101819.91;6426428;23;20009;-73
2022/05/12 10:00:34;;;;;;;5.97;3.05;;;;;;;20.85;43.25;101815.81;6427139;23;20008;-72
2022/05/12 10:09:28;;;;;;;5.82;2.10;;;;;;;21.22;40.31;101813.44;6426908;23;20013;-73
2022/05/12 10:12:02;;;;;;;6.35;1.80;;;;;;;20.73;39.91;101813.72;6412279;23;20222;-73
2022/05/12 10:14:38;;;;;;;5.05;1.92;;;;;;;20.48;41.70;101819.06;6426487;23;20015;-73
2022/05/12 10:17:39;;;;;;;7.57;2.35;;;;;;;20.53;43.74;101813.25;6427250;23;20059;-73
2022/05/12 10:20:20;;;;;;;6.78;3.38;;;;;;;20.34;44.75;101822.44;6426035;23;20016;-73
2022/05/12 10:22:55;;;;;;;4.38;2.90;;;;;;;20.26;43.58;101822.47;6426061;23;20004;-73
2022/05/12 10:25:56;;;;;;;7.43;3.45;;;;;;;20.01;43.08;101819.03;6426691;23;20016;-72
2022/05/12 10:28:48;;;;;;;6.30;2.85;;;;;;;20.28;43.28;101826.63;6427544;23;20005;-73
2022/05/12 10:31:27;;;;;;;6.63;3.50;;;;;;;20.03;43.77;101823.16;6400032;23;20091;-73
2022/05/12 10:34:17;;;;;;;4.70;2.92;;;;;;;20.43;45.23;101821.44;6426674;23;20014;-69
2022/05/12 10:36:54;;;;;;;6.68;2.58;;;;;;;20.75;42.81;101815.19;6425684;23;20036;-75
2022/05/12 10:39:48;;;;;;;5.60;2.60;;;;;;;21.02;42.54;101811.22;6425531;23;20092;-72
2022/05/12 10:42:37;;;;;;;6.97;2.40;;;;;;;20.98;41.58;101820.56;6425077;23;20001;-72
2022/05/12 10:45:40;;;;;;;5.68;2.55;;;;;;;21.02;42.63;101813.88;6398708;23;20314;-72
2022/05/12 10:48:33;;;;;;;7.00;2.28;;;;;;;20.92;42.69;101812.47;6400791;23;20012;-75
2022/05/12 10:51:08;;;;;;;4.47;2.20;;;;;;;20.89;40.74;101805.63;6424141;23;20025;-73
2022/05/12 10:54:05;;;;;;;6.30;2.08;;;;;;;20.89;40.18;101810.97;6424575;23;20472;-72
2022/05/12 10:57:04;;;;;;;4.93;2.40;;;;;;;20.98;39.74;101825.88;6426377;23;20063;-73
2022/05/12 10:59:47;;;;;;;4.90;2.50;;;;;;;20.55;40.12;101809.44;6426107;23;20040;-71
2022/05/12 11:02:44;;;;;;;4.93;2.72;;;;;;;20.92;41.69;101812.47;6426835;23;20088;-72
2022/05/12 11:05:21;;;;;;;11.27;3.08;;;;;;;21.04;40.60;101806.53;6424910;23;20008;-71
2022/05/12 11:08:04;;;;;;;6.45;2.90;;;;;;;21.43;40.75;101805.66;6424163;23;20341;-72
2022/05/12 11:10:42;;;;;;;5.13;2.70;;;;;;;21.49;38.30;101809.44;6427834;23;20005;-75
2022/05/12 11:13:38;;;;;;;6.40;2.58;;;;;;;21.61;38.42;101800.84;6428568;23;20005;-75
2022/05/12 11:16:24;;;;;;;5.30;2.15;;;;;;;21.31;38.04;101802.53;6428478;23;20402;-72
2022/05/12 11:19:19;;;;;;;7.85;2.47;;;;;;;21.18;37.54;101799.66;6427706;23;20063;-73
2022/05/12 11:22:00;;;;;;;5.30;2.40;;;;;;;21.41;38.91;101797.00;6425205;23;20019;-73
2022/05/12 11:24:54;;;;;;;6.47;2.38;;;;;;;21.82;37.41;101797.50;6427503;23;20008;-73
2022/05/12 11:31:21;;;;;;;3.88;2.50;;;;;;;21.87;37.14;101796.94;6300240;23;20018;-72
2022/05/12 11:34:01;;;;;;;8.20;2.70;;;;;;;21.91;35.86;101794.75;6302536;23;20018;-73
2022/05/12 11:36:37;;;;;;;5.82;2.10;;;;;;;22.23;36.22;101790.94;6390124;23;20655;-73
2022/05/12 11:39:40;;;;;;;7.78;2.40;;;;;;;22.29;34.72;101784.88;6427480;23;20055;-72
2022/05/12 11:42:20;;;;;;;5.60;2.03;;;;;;;21.91;34.98;101774.22;6427506;23;20135;-75
2022/05/12 11:45:05;;;;;;;3.78;1.90;;;;;;;21.79;33.71;101784.53;6427411;23;20241;-71
2022/05/12 11:48:09;;;;;;;5.13;1.90;;;;;;;21.81;34.92;101790.47;6427509;23;20429;-71
2022/05/12 11:50:50;;;;;;;3.60;1.77;;;;;;;21.50;35.19;101789.78;6427499;23;20400;-72
2022/05/12 11:53:31;;;;;;;4.82;1.70;;;;;;;21.42;34.59;101782.66;6426901;23;20040;-72
2022/05/12 11:56:12;;;;;;;5.13;1.55;;;;;;;21.41;35.32;101794.34;6427385;23;20345;-72
2022/05/12 11:58:48;;;;;;;6.00;1.70;;;;;;;21.28;34.60;101786.06;6428424;23;20016;-72
2022/05/12 12:01:20;;;;;;;4.97;1.67;;;;;;;21.09;34.36;101790.03;6425824;23;20344;-73
2022/05/12 12:03:54;;;;;;;3.73;1.47;;;;;;;21.14;34.41;101785.84;6427236;23;20015;-71
2022/05/12 12:06:41;;;;;;;4.68;1.60;;;;;;;21.49;34.57;101783.63;6424840;23;20066;-73
2022/05/12 12:09:25;;;;;;;8.52;1.83;;;;;;;21.66;35.16;101780.81;6426894;23;20069;-71
2022/05/12 12:11:56;;;;;;;6.38;1.63;;;;;;;21.60;35.22;101788.53;6425356;23;20392;-72
2022/05/12 12:14:43;;;;;;;4.23;1.70;;;;;;;21.88;33.73;101793.25;6424250;23;20005;-71